createdAt,value
2018-05-10T00:00:52.983Z,85.67
2018-05-10T00:01:52.926Z,85.48
2018-05-10T00:02:52.870Z,85.29
2018-05-10T00:03:52.813Z,86.20
2018-05-10T00:04:52.758Z,86.96
2018-05-10T00:05:52.703Z,86.72
2018-05-10T00:06:52.646Z,86.05
2018-05-10T00:07:52.661Z,86.34
2018-05-10T00:08:52.534Z,86.72
2018-05-10T00:09:52.478Z,85.48
2018-05-10T00:10:52.421Z,85.48
2018-05-10T00:11:52.368Z,85.58
2018-05-10T00:12:52.310Z,85.19
2018-05-10T00:13:52.255Z,85.10
2018-05-10T00:14:52.201Z,84.91
2018-05-10T00:15:52.215Z,84.23
2018-05-10T00:16:52.095Z,84.14
2018-05-10T00:17:52.033Z,84.14
2018-05-10T00:18:51.976Z,84.23
2018-05-10T00:19:51.919Z,84.14
2018-05-10T00:20:51.864Z,84.56
2018-05-10T00:21:51.807Z,84.33
2018-05-10T00:22:51.753Z,84.38
2018-05-10T00:23:51.695Z,84.28
2018-05-10T00:24:51.640Z,83.67
2018-05-10T00:25:51.584Z,84.38
2018-05-10T00:26:51.529Z,84.09
2018-05-10T00:27:51.472Z,83.61
2018-05-10T00:28:51.420Z,83.95
2018-05-10T00:29:51.367Z,84.43
2018-05-10T00:30:51.305Z,84.62
2018-05-10T00:31:51.251Z,85.19
2018-05-10T00:32:51.193Z,85.10
2018-05-10T00:33:51.139Z,85.77
2018-05-10T00:34:51.082Z,86.63
2018-05-10T00:35:51.027Z,86.53
2018-05-10T00:36:50.971Z,85.82
2018-05-10T00:37:50.914Z,86.34
2018-05-10T00:38:50.858Z,87.29
2018-05-10T00:39:50.803Z,87.63
2018-05-10T00:40:50.749Z,87.25
2018-05-10T00:41:50.690Z,86.43
2018-05-10T00:42:50.635Z,86.72
2018-05-10T00:43:50.579Z,86.72
2018-05-10T00:44:50.522Z,86.24
2018-05-10T00:45:50.467Z,86.05
2018-05-10T00:46:50.408Z,86.34
2018-05-10T00:47:50.352Z,87.01
2018-05-10T00:48:50.298Z,86.63
2018-05-10T00:49:50.244Z,86.43
2018-05-10T00:50:50.183Z,86.43
2018-05-10T00:51:50.129Z,85.77
2018-05-10T00:52:50.072Z,85.77
2018-05-10T00:53:50.017Z,85.96
2018-05-10T00:54:49.962Z,86.05
2018-05-10T00:55:49.906Z,86.15
2018-05-10T00:56:49.847Z,86.34
2018-05-10T00:57:49.793Z,85.67
2018-05-10T00:58:49.735Z,85.48
2018-05-10T00:59:49.679Z,86.05
2018-05-10T01:00:49.623Z,85.38
2018-05-10T01:01:49.569Z,85.29
2018-05-10T01:02:49.510Z,85.38
2018-05-10T01:03:49.455Z,85.48
2018-05-10T01:04:49.476Z,85.38
2018-05-10T01:05:49.345Z,85.96
2018-05-10T01:06:49.289Z,86.05
2018-05-10T01:07:50.179Z,86.05
2018-05-10T01:08:49.178Z,86.34
2018-05-10T01:09:49.120Z,85.86
2018-05-10T01:10:49.060Z,85.38
2018-05-10T01:11:49.006Z,85.63
2018-05-10T01:12:48.953Z,85.63
2018-05-10T01:13:48.894Z,86.20
2018-05-10T01:14:48.840Z,86.77
2018-05-10T01:15:48.781Z,86.30
2018-05-10T01:16:48.725Z,86.49
2018-05-10T01:17:48.669Z,87.06
2018-05-10T01:18:48.613Z,88.45
2018-05-10T01:19:48.558Z,87.92
2018-05-10T01:20:48.499Z,87.30
2018-05-10T01:21:48.446Z,87.49
2018-05-10T01:22:48.387Z,88.07
2018-05-10T01:23:48.330Z,88.73
2018-05-10T01:24:48.278Z,88.35
2018-05-10T01:25:48.223Z,88.26
2018-05-10T01:26:48.162Z,88.54
2018-05-10T01:27:48.105Z,88.83
2018-05-10T01:28:48.050Z,88.54
2018-05-10T01:29:47.995Z,88.92
2018-05-10T01:30:47.943Z,88.50
2018-05-10T01:31:47.878Z,89.45
2018-05-10T01:32:47.823Z,89.26
2018-05-10T01:33:47.765Z,89.64
2018-05-10T01:34:47.708Z,90.03
2018-05-10T01:35:47.652Z,89.45
2018-05-10T01:36:47.596Z,90.03
2018-05-10T01:37:47.538Z,90.59
2018-05-10T01:38:47.481Z,90.41
2018-05-10T01:39:47.426Z,90.59
2018-05-10T01:40:47.373Z,90.22
2018-05-10T01:41:47.313Z,90.88
2018-05-10T01:42:47.255Z,90.88
2018-05-10T01:43:47.200Z,90.88
2018-05-10T01:44:47.141Z,91.17
2018-05-10T01:45:47.085Z,91.46
2018-05-10T01:46:47.027Z,91.27
2018-05-10T01:47:46.971Z,91.07
2018-05-10T01:48:46.915Z,90.88
2018-05-10T01:49:46.858Z,91.07
2018-05-10T01:50:46.800Z,90.88
2018-05-10T01:51:46.746Z,90.98
2018-05-10T01:52:46.686Z,90.98
2018-05-10T01:53:46.630Z,90.88
2018-05-10T01:54:46.576Z,91.17
2018-05-10T01:55:46.516Z,90.88
2018-05-10T01:56:46.459Z,90.88
2018-05-10T01:57:46.404Z,90.59
2018-05-10T01:58:46.346Z,90.50
2018-05-10T01:59:46.289Z,90.41
2018-05-10T02:00:46.237Z,91.17
2018-05-10T02:01:46.176Z,91.36
2018-05-10T02:02:46.117Z,91.07
2018-05-10T02:03:46.061Z,91.07
2018-05-10T02:04:46.004Z,90.41
2018-05-10T02:05:45.949Z,90.98
2018-05-10T02:06:45.890Z,90.22
2018-05-10T02:07:45.833Z,90.98
2018-05-10T02:08:45.777Z,92.22
2018-05-10T02:09:45.721Z,92.69
2018-05-10T02:10:45.662Z,93.17
2018-05-10T02:11:45.606Z,92.12
2018-05-10T02:12:45.557Z,92.50
2018-05-10T02:13:45.495Z,91.98
2018-05-10T02:14:45.525Z,92.22
2018-05-10T02:15:45.383Z,92.27
2018-05-10T02:16:45.321Z,92.27
2018-05-10T02:17:45.265Z,93.08
2018-05-10T02:18:45.208Z,92.88
2018-05-10T02:19:45.148Z,92.22
2018-05-10T02:20:45.094Z,91.27
2018-05-10T02:21:45.036Z,90.98
2018-05-10T02:22:44.978Z,91.64
2018-05-10T02:23:44.919Z,90.98
2018-05-10T02:24:44.866Z,90.59
2018-05-10T02:25:44.806Z,91.17
2018-05-10T02:26:44.750Z,90.88
2018-05-10T02:27:44.693Z,91.83
2018-05-10T02:28:44.638Z,92.41
2018-05-10T02:29:44.621Z,92.12
2018-05-10T02:30:44.524Z,91.55
2018-05-10T02:31:44.464Z,91.93
2018-05-10T02:32:44.407Z,91.83
2018-05-10T02:33:44.350Z,91.36
2018-05-10T02:34:44.292Z,91.55
2018-05-10T02:35:44.236Z,92.88
2018-05-10T02:36:44.179Z,92.88
2018-05-10T02:37:44.122Z,92.32
2018-05-10T02:38:44.064Z,92.12
2018-05-10T02:39:44.008Z,92.22
2018-05-10T02:40:43.951Z,92.03
2018-05-10T02:41:43.894Z,92.12
2018-05-10T02:42:43.835Z,91.55
2018-05-10T02:43:43.777Z,90.98
2018-05-10T02:44:43.722Z,91.74
2018-05-10T02:45:43.666Z,92.50
2018-05-10T02:46:43.612Z,91.83
2018-05-10T02:47:43.551Z,91.93
2018-05-10T02:48:43.494Z,91.83
2018-05-10T02:49:43.441Z,91.55
2018-05-10T02:50:43.381Z,91.83
2018-05-10T02:51:43.325Z,92.22
2018-05-10T02:52:43.265Z,91.64
2018-05-10T02:53:43.211Z,92.79
2018-05-10T02:54:43.151Z,92.32
2018-05-10T02:55:43.093Z,91.27
2018-05-10T02:56:43.038Z,91.07
2018-05-10T02:57:42.980Z,90.88
2018-05-10T02:58:42.926Z,90.41
2018-05-10T02:59:42.866Z,89.83
2018-05-10T03:00:42.809Z,89.83
2018-05-10T03:01:42.755Z,90.31
2018-05-10T03:02:42.698Z,91.17
2018-05-10T03:03:42.642Z,91.27
2018-05-10T03:04:42.580Z,90.79
2018-05-10T03:05:42.523Z,91.93
2018-05-10T03:06:42.468Z,92.03
2018-05-10T03:07:42.409Z,92.22
2018-05-10T03:08:42.352Z,91.36
2018-05-10T03:09:42.319Z,91.07
2018-05-10T03:10:42.239Z,90.79
2018-05-10T03:11:42.180Z,90.88
2018-05-10T03:12:42.123Z,90.98
2018-05-10T03:13:42.066Z,90.79
2018-05-10T03:14:42.008Z,90.41
2018-05-10T03:15:41.951Z,90.41
2018-05-10T03:16:41.894Z,90.41
2018-05-10T03:17:41.842Z,90.59
2018-05-10T03:18:41.783Z,90.50
2018-05-10T03:19:41.725Z,91.36
2018-05-10T03:20:41.669Z,91.27
2018-05-10T03:21:41.610Z,91.83
2018-05-10T03:22:41.554Z,91.55
2018-05-10T03:23:41.496Z,92.22
2018-05-10T03:24:41.439Z,91.74
2018-05-10T03:25:41.383Z,92.22
2018-05-10T03:26:41.328Z,92.69
2018-05-10T03:27:41.269Z,92.03
2018-05-10T03:28:41.211Z,91.93
2018-05-10T03:29:41.164Z,92.12
2018-05-10T03:30:41.099Z,91.64
2018-05-10T03:31:41.041Z,92.03
2018-05-10T03:32:40.982Z,92.88
2018-05-10T03:33:40.927Z,92.50
2018-05-10T03:34:40.870Z,92.32
2018-05-10T03:35:40.812Z,92.22
2018-05-10T03:36:40.756Z,92.12
2018-05-10T03:37:40.699Z,91.46
2018-05-10T03:38:40.641Z,91.64
2018-05-10T03:39:40.587Z,91.27
2018-05-10T03:40:40.528Z,91.46
2018-05-10T03:41:40.473Z,91.27
2018-05-10T03:42:40.417Z,91.17
2018-05-10T03:43:40.360Z,91.74
2018-05-10T03:44:40.302Z,92.12
2018-05-10T03:45:40.245Z,92.41
2018-05-10T03:46:40.187Z,93.08
2018-05-10T03:47:40.133Z,93.27
2018-05-10T03:48:40.074Z,93.51
2018-05-10T03:49:40.017Z,93.79
2018-05-10T03:50:39.961Z,93.41
2018-05-10T03:51:39.900Z,93.12
2018-05-10T03:52:39.844Z,93.70
2018-05-10T03:53:39.791Z,93.17
2018-05-10T03:54:39.731Z,94.17
2018-05-10T03:55:39.675Z,94.17
2018-05-10T03:56:39.627Z,93.93
2018-05-10T03:57:39.559Z,93.74
2018-05-10T03:58:39.506Z,93.60
2018-05-10T03:59:39.445Z,93.79
2018-05-10T04:00:39.388Z,93.46
2018-05-10T04:01:39.331Z,93.65
2018-05-10T04:02:39.273Z,93.74
2018-05-10T04:03:39.221Z,94.03
2018-05-10T04:04:39.158Z,93.84
2018-05-10T04:05:39.101Z,93.65
2018-05-10T04:06:39.044Z,93.55
2018-05-10T04:07:38.988Z,94.41
2018-05-10T04:08:38.931Z,95.56
2018-05-10T04:09:38.876Z,94.70
2018-05-10T04:10:38.816Z,93.74
2018-05-10T04:11:38.758Z,93.74
2018-05-10T04:12:38.702Z,93.65
2018-05-10T04:13:38.646Z,94.60
2018-05-10T04:14:38.586Z,93.65
2018-05-10T04:15:38.541Z,94.98
2018-05-10T04:16:38.473Z,95.08
2018-05-10T04:17:38.415Z,93.93
2018-05-10T04:18:38.359Z,93.65
2018-05-10T04:19:38.303Z,93.88
2018-05-10T04:20:38.245Z,93.74
2018-05-10T04:21:38.189Z,93.79
2018-05-10T04:22:38.131Z,94.07
2018-05-10T04:23:38.074Z,94.17
2018-05-10T04:24:38.017Z,92.17
2018-05-10T04:25:37.960Z,91.98
2018-05-10T04:26:37.903Z,92.26
2018-05-10T04:27:37.846Z,92.17
2018-05-10T04:28:37.789Z,91.98
2018-05-10T04:29:37.734Z,92.46
2018-05-10T04:30:37.677Z,91.98
2018-05-10T04:31:37.619Z,91.78
2018-05-10T04:32:37.563Z,92.21
2018-05-10T04:33:37.506Z,90.88
2018-05-10T04:34:37.458Z,91.07
2018-05-10T04:35:37.392Z,90.88
2018-05-10T04:36:37.337Z,91.07
2018-05-10T04:37:37.282Z,90.97
2018-05-10T04:38:37.223Z,91.45
2018-05-10T04:39:37.167Z,91.26
2018-05-10T04:40:37.111Z,90.50
2018-05-10T04:41:37.053Z,90.69
2018-05-10T04:42:36.998Z,90.40
2018-05-10T04:43:36.941Z,90.97
2018-05-10T04:44:36.886Z,92.41
2018-05-10T04:45:36.828Z,91.36
2018-05-10T04:46:36.780Z,91.45
2018-05-10T04:47:36.716Z,91.45
2018-05-10T04:48:36.663Z,90.97
2018-05-10T04:49:36.605Z,90.40
2018-05-10T04:50:36.550Z,90.97
2018-05-10T04:51:36.492Z,90.40
2018-05-10T04:52:36.436Z,90.11
2018-05-10T04:53:36.382Z,90.11
2018-05-10T04:54:36.322Z,91.45
2018-05-10T04:55:36.266Z,92.12
2018-05-10T04:56:36.210Z,92.69
2018-05-10T04:57:36.155Z,92.41
2018-05-10T04:58:36.098Z,92.41
2018-05-10T04:59:36.041Z,91.55
2018-05-10T05:00:35.986Z,91.07
2018-05-10T05:01:35.930Z,91.93
2018-05-10T05:02:35.872Z,91.64
2018-05-10T05:03:35.816Z,90.69
2018-05-10T05:04:35.760Z,89.73
2018-05-10T05:05:35.702Z,90.06
2018-05-10T05:06:35.647Z,89.30
2018-05-10T05:07:35.590Z,89.30
2018-05-10T05:08:35.536Z,88.73
2018-05-10T05:09:35.478Z,88.82
2018-05-10T05:10:35.427Z,88.44
2018-05-10T05:11:35.368Z,87.39
2018-05-10T05:12:35.309Z,87.53
2018-05-10T05:13:35.252Z,88.73
2018-05-10T05:14:35.195Z,86.86
2018-05-10T05:15:35.142Z,86.86
2018-05-10T05:16:35.083Z,86.67
2018-05-10T05:17:35.028Z,85.71
2018-05-10T05:18:34.972Z,85.42
2018-05-10T05:19:34.913Z,87.15
2018-05-10T05:20:34.858Z,85.71
2018-05-10T05:21:34.829Z,85.52
2018-05-10T05:22:34.745Z,85.62
2018-05-10T05:23:34.689Z,86.10
2018-05-10T05:24:34.634Z,85.33
2018-05-10T05:25:34.577Z,85.18
2018-05-10T05:26:34.524Z,85.09
2018-05-10T05:27:34.465Z,85.18
2018-05-10T05:28:34.410Z,84.99
2018-05-10T05:29:34.355Z,84.32
2018-05-10T05:30:34.297Z,84.70
2018-05-10T05:31:34.243Z,84.52
2018-05-10T05:32:34.193Z,84.61
2018-05-10T05:33:34.134Z,84.23
2018-05-10T05:34:34.077Z,84.75
2018-05-10T05:35:34.130Z,85.51
2018-05-10T05:36:34.046Z,85.41
2018-05-10T05:37:33.916Z,84.84
2018-05-10T05:38:33.857Z,84.36
2018-05-10T05:39:33.801Z,84.65
2018-05-10T05:40:33.747Z,84.36
2018-05-10T05:41:33.701Z,84.69
2018-05-10T05:42:33.637Z,85.27
2018-05-10T05:43:33.643Z,84.31
2018-05-10T05:44:33.527Z,83.26
2018-05-10T05:45:33.472Z,83.83
2018-05-10T05:46:33.420Z,84.02
2018-05-10T05:47:33.362Z,83.73
2018-05-10T05:48:33.308Z,84.55
2018-05-10T05:49:33.255Z,85.02
2018-05-10T05:50:33.212Z,85.12
2018-05-10T05:51:33.145Z,84.55
2018-05-10T05:52:33.095Z,83.97
2018-05-10T05:53:33.039Z,83.59
2018-05-10T05:54:32.980Z,83.68
2018-05-10T05:55:32.924Z,83.20
2018-05-10T05:56:32.869Z,81.81
2018-05-10T05:57:32.826Z,80.81
2018-05-10T05:58:32.761Z,80.94
2018-05-10T05:59:32.705Z,80.76
2018-05-10T06:00:32.654Z,80.18
2018-05-10T06:01:32.597Z,80.85
2018-05-10T06:02:32.541Z,80.56
2018-05-10T06:03:32.488Z,79.89
2018-05-10T06:04:32.434Z,79.60
2018-05-10T06:05:32.378Z,79.45
2018-05-10T06:06:32.324Z,78.88
2018-05-10T06:07:32.270Z,78.88
2018-05-10T06:08:32.222Z,78.88
2018-05-10T06:09:32.161Z,79.36
2018-05-10T06:10:32.106Z,77.53
2018-05-10T06:11:32.052Z,78.05
2018-05-10T06:12:31.997Z,78.05
2018-05-10T06:13:31.945Z,77.76
2018-05-10T06:14:31.890Z,77.48
2018-05-10T06:15:31.917Z,76.52
2018-05-10T06:16:31.782Z,76.81
2018-05-10T06:17:31.730Z,76.07
2018-05-10T06:18:31.674Z,76.27
2018-05-10T06:19:31.620Z,74.93
2018-05-10T06:20:31.567Z,74.06
2018-05-10T06:21:31.516Z,74.16
2018-05-10T06:22:31.459Z,75.21
2018-05-10T06:23:31.406Z,75.02
2018-05-10T06:24:31.353Z,74.39
2018-05-10T06:25:31.300Z,74.01
2018-05-10T06:26:31.249Z,74.96
2018-05-10T06:27:31.201Z,74.48
2018-05-10T06:28:31.140Z,72.56
2018-05-10T06:29:31.089Z,72.89
2018-05-10T06:30:31.035Z,72.69
2018-05-10T06:31:30.981Z,73.66
2018-05-10T06:32:30.929Z,72.41
2018-05-10T06:33:30.877Z,72.02
2018-05-10T06:34:30.823Z,71.83
2018-05-10T06:35:30.770Z,72.79
2018-05-10T06:36:30.718Z,73.08
2018-05-10T06:37:30.667Z,74.13
2018-05-10T06:38:30.612Z,74.13
2018-05-10T06:39:30.563Z,73.75
2018-05-10T06:40:30.508Z,73.46
2018-05-10T06:41:30.552Z,73.56
2018-05-10T06:42:30.402Z,74.23
2018-05-10T06:43:30.350Z,73.37
2018-05-10T06:44:30.296Z,73.37
2018-05-10T06:45:30.250Z,74.62
2018-05-10T06:46:30.193Z,72.99
2018-05-10T06:47:30.140Z,73.02
2018-05-10T06:48:30.089Z,72.44
2018-05-10T06:49:30.041Z,72.92
2018-05-10T06:50:29.984Z,72.54
2018-05-10T06:51:29.933Z,72.64
2018-05-10T06:52:29.879Z,70.81
2018-05-10T06:53:29.831Z,71.58
2018-05-10T06:54:29.805Z,67.54
2018-05-10T06:55:29.722Z,68.12
2018-05-10T06:56:29.670Z,68.25
2018-05-10T06:57:29.621Z,69.40
2018-05-10T06:58:29.566Z,68.54
2018-05-10T06:59:29.516Z,68.54
2018-05-10T07:00:29.467Z,69.12
2018-05-10T07:01:29.412Z,67.58
2018-05-10T07:02:29.360Z,66.61
2018-05-10T07:03:29.310Z,66.61
2018-05-10T07:04:29.257Z,66.81
2018-05-10T07:05:29.209Z,66.52
2018-05-10T07:06:29.158Z,67.10
2018-05-10T07:07:29.106Z,66.17
2018-05-10T07:08:29.055Z,66.36
2018-05-10T07:09:29.132Z,65.20
2018-05-10T07:10:28.948Z,64.43
2018-05-10T07:11:28.898Z,63.95
2018-05-10T07:12:28.847Z,64.43
2018-05-10T07:13:28.795Z,65.50
2018-05-10T07:14:28.744Z,64.53
2018-05-10T07:15:28.695Z,63.38
2018-05-10T07:16:28.642Z,63.76
2018-05-10T07:17:28.590Z,63.28
2018-05-10T07:18:28.537Z,63.57
2018-05-10T07:19:28.489Z,63.67
2018-05-10T07:20:28.436Z,63.57
2018-05-10T07:21:28.386Z,64.53
2018-05-10T07:22:28.334Z,65.11
2018-05-10T07:23:28.283Z,63.48
2018-05-10T07:24:28.234Z,64.34
2018-05-10T07:25:28.269Z,65.14
2018-05-10T07:26:28.132Z,64.66
2018-05-10T07:27:28.081Z,64.08
2018-05-10T07:28:28.029Z,65.05
2018-05-10T07:29:27.976Z,64.56
2018-05-10T07:30:27.929Z,63.79
2018-05-10T07:31:27.874Z,62.83
2018-05-10T07:32:27.824Z,63.38
2018-05-10T07:33:27.772Z,63.95
2018-05-10T07:34:27.722Z,62.61
2018-05-10T07:35:27.669Z,64.73
2018-05-10T07:36:27.618Z,65.11
2018-05-10T07:37:27.570Z,64.82
2018-05-10T07:38:27.519Z,64.63
2018-05-10T07:39:27.466Z,65.50
2018-05-10T07:40:27.414Z,65.97
2018-05-10T07:41:27.364Z,63.76
2018-05-10T07:42:27.319Z,63.38
2018-05-10T07:43:27.262Z,64.43
2018-05-10T07:44:27.211Z,66.07
2018-05-10T07:45:27.159Z,65.30
2018-05-10T07:46:27.109Z,66.84
2018-05-10T07:47:27.113Z,66.78
2018-05-10T07:48:27.009Z,64.95
2018-05-10T07:49:26.955Z,66.20
2018-05-10T07:50:26.904Z,64.95
2018-05-10T07:51:26.857Z,65.43
2018-05-10T07:52:26.802Z,64.95
2018-05-10T07:53:26.751Z,65.37
2018-05-10T07:54:26.704Z,66.24
2018-05-10T07:55:26.654Z,66.33
2018-05-10T07:56:26.598Z,66.24
2018-05-10T07:57:26.548Z,66.14
2018-05-10T07:58:26.496Z,66.24
2018-05-10T07:59:26.445Z,66.91
2018-05-10T08:00:26.398Z,66.91
2018-05-10T08:01:26.349Z,67.97
2018-05-10T08:02:26.293Z,68.32
2018-05-10T08:03:26.247Z,68.32
2018-05-10T08:04:26.191Z,67.65
2018-05-10T08:05:26.141Z,68.41
2018-05-10T08:06:26.090Z,69.38
2018-05-10T08:07:26.041Z,69.09
2018-05-10T08:08:25.990Z,69.22
2018-05-10T08:09:25.939Z,69.38
2018-05-10T08:10:25.886Z,69.76
2018-05-10T08:11:26.765Z,69.76
2018-05-10T08:12:25.785Z,69.95
2018-05-10T08:13:25.735Z,69.47
2018-05-10T08:14:25.683Z,69.47
2018-05-10T08:15:25.634Z,69.73
2018-05-10T08:16:25.585Z,69.53
2018-05-10T08:17:25.531Z,69.34
2018-05-10T08:18:25.479Z,69.92
2018-05-10T08:19:25.428Z,70.50
2018-05-10T08:20:25.380Z,70.78
2018-05-10T08:21:25.327Z,71.46
2018-05-10T08:22:25.276Z,72.61
2018-05-10T08:23:25.227Z,72.23
2018-05-10T08:24:25.174Z,71.08
2018-05-10T08:25:25.124Z,70.59
2018-05-10T08:26:25.073Z,69.44
2018-05-10T08:27:25.025Z,69.53
2018-05-10T08:28:24.969Z,69.82
2018-05-10T08:29:24.919Z,69.63
2018-05-10T08:30:24.870Z,69.82
2018-05-10T08:31:24.819Z,69.53
2018-05-10T08:32:24.767Z,69.63
2018-05-10T08:33:24.718Z,70.59
2018-05-10T08:34:24.664Z,69.53
2018-05-10T08:35:24.613Z,69.53
2018-05-10T08:36:24.596Z,69.82
2018-05-10T08:37:24.513Z,70.21
2018-05-10T08:38:24.460Z,70.30
2018-05-10T08:39:24.413Z,71.46
2018-05-10T08:40:24.359Z,72.03
2018-05-10T08:41:24.308Z,71.46
2018-05-10T08:42:24.257Z,71.23
2018-05-10T08:43:24.208Z,71.61
2018-05-10T08:44:24.155Z,70.65
2018-05-10T08:45:24.104Z,71.81
2018-05-10T08:46:24.054Z,73.83
2018-05-10T08:47:24.002Z,72.96
2018-05-10T08:48:23.950Z,73.15
2018-05-10T08:49:23.900Z,74.30
2018-05-10T08:50:23.847Z,72.19
2018-05-10T08:51:23.798Z,71.52
2018-05-10T08:52:23.745Z,72.00
2018-05-10T08:53:23.696Z,73.92
2018-05-10T08:54:23.643Z,73.35
2018-05-10T08:55:23.593Z,72.96
2018-05-10T08:56:23.542Z,73.44
2018-05-10T08:57:23.490Z,74.21
2018-05-10T08:58:23.442Z,76.61
2018-05-10T08:59:23.387Z,77.44
2018-05-10T09:00:23.337Z,78.40
2018-05-10T09:01:23.286Z,78.30
2018-05-10T09:02:23.233Z,79.27
2018-05-10T09:03:23.186Z,79.36
2018-05-10T09:04:23.132Z,80.51
2018-05-10T09:05:23.080Z,80.80
2018-05-10T09:06:23.028Z,81.34
2018-05-10T09:07:22.986Z,81.09
2018-05-10T09:08:22.926Z,82.63
2018-05-10T09:09:22.876Z,82.01
2018-05-10T09:10:22.824Z,80.96
2018-05-10T09:11:22.772Z,81.24
2018-05-10T09:12:22.720Z,79.80
2018-05-10T09:13:22.672Z,79.52
2018-05-10T09:14:22.622Z,80.38
2018-05-10T09:15:22.564Z,82.20
2018-05-10T09:16:22.516Z,82.10
2018-05-10T09:17:22.462Z,82.97
2018-05-10T09:18:22.408Z,82.01
2018-05-10T09:19:22.357Z,82.30
2018-05-10T09:20:22.356Z,82.01
2018-05-10T09:21:22.255Z,82.30
2018-05-10T09:22:22.204Z,82.10
2018-05-10T09:23:22.149Z,82.49
2018-05-10T09:24:22.097Z,81.87
2018-05-10T09:25:22.047Z,83.80
2018-05-10T09:26:21.993Z,82.35
2018-05-10T09:27:21.940Z,83.12
2018-05-10T09:28:21.895Z,83.03
2018-05-10T09:29:21.835Z,82.93
2018-05-10T09:30:21.785Z,82.07
2018-05-10T09:31:21.730Z,82.54
2018-05-10T09:32:21.680Z,83.70
2018-05-10T09:33:21.627Z,82.93
2018-05-10T09:34:21.574Z,83.93
2018-05-10T09:35:21.529Z,84.89
2018-05-10T09:36:21.476Z,84.22
2018-05-10T09:37:21.417Z,82.40
2018-05-10T09:38:21.366Z,82.87
2018-05-10T09:39:21.345Z,84.51
2018-05-10T09:40:21.259Z,83.74
2018-05-10T09:41:21.210Z,84.31
2018-05-10T09:42:21.154Z,84.60
2018-05-10T09:43:21.103Z,85.28
2018-05-10T09:44:21.048Z,84.70
2018-05-10T09:45:20.998Z,83.84
2018-05-10T09:46:20.957Z,83.07
2018-05-10T09:47:20.894Z,84.60
2018-05-10T09:48:20.841Z,83.54
2018-05-10T09:49:20.793Z,83.12
2018-05-10T09:50:20.736Z,83.60
2018-05-10T09:51:20.690Z,83.41
2018-05-10T09:52:20.634Z,83.26
2018-05-10T09:53:20.580Z,84.12
2018-05-10T09:54:20.525Z,83.16
2018-05-10T09:55:20.496Z,83.45
2018-05-10T09:56:20.425Z,82.10
2018-05-10T09:57:20.366Z,82.10
2018-05-10T09:58:20.315Z,81.34
2018-05-10T09:59:20.262Z,81.92
2018-05-10T10:00:20.213Z,81.82
2018-05-10T10:01:20.162Z,82.30
2018-05-10T10:02:20.104Z,80.66
2018-05-10T10:03:20.052Z,80.09
2018-05-10T10:04:20.001Z,81.15
2018-05-10T10:05:19.948Z,81.05
2018-05-10T10:06:19.990Z,81.15
2018-05-10T10:07:19.842Z,79.52
2018-05-10T10:08:19.791Z,80.71
2018-05-10T10:09:19.739Z,82.15
2018-05-10T10:10:19.685Z,79.65
2018-05-10T10:11:19.633Z,79.07
2018-05-10T10:12:19.581Z,78.69
2018-05-10T10:13:19.530Z,79.17
2018-05-10T10:14:19.476Z,78.78
2018-05-10T10:15:19.424Z,78.50
2018-05-10T10:16:19.372Z,77.92
2018-05-10T10:17:19.322Z,77.63
2018-05-10T10:18:19.289Z,79.88
2018-05-10T10:19:19.217Z,74.60
2018-05-10T10:20:19.164Z,74.40
2018-05-10T10:21:19.111Z,75.65
2018-05-10T10:22:19.062Z,72.61
2018-05-10T10:23:19.008Z,73.86
2018-05-10T10:24:18.956Z,69.95
2018-05-10T10:25:18.997Z,69.85
2018-05-10T10:26:18.853Z,69.85
2018-05-10T10:27:18.840Z,69.67
2018-05-10T10:28:18.751Z,69.95
2018-05-10T10:29:18.699Z,69.67
2018-05-10T10:30:18.647Z,68.64
2018-05-10T10:31:18.596Z,67.97
2018-05-10T10:32:18.634Z,66.81
2018-05-10T10:33:18.493Z,66.81
2018-05-10T10:34:18.444Z,66.62
2018-05-10T10:35:18.394Z,65.85
2018-05-10T10:36:18.340Z,66.24
2018-05-10T10:37:18.290Z,66.81
2018-05-10T10:38:18.295Z,66.91
2018-05-10T10:39:18.187Z,65.85
2018-05-10T10:40:18.143Z,65.85
2018-05-10T10:41:18.085Z,65.43
2018-05-10T10:42:18.036Z,66.10
2018-05-10T10:43:17.984Z,65.91
2018-05-10T10:44:17.932Z,68.03
2018-05-10T10:45:17.884Z,68.41
2018-05-10T10:46:17.838Z,66.88
2018-05-10T10:47:17.779Z,66.97
2018-05-10T10:48:17.729Z,69.47
2018-05-10T10:49:17.679Z,69.82
2018-05-10T10:50:17.627Z,70.50
2018-05-10T10:51:17.582Z,71.65
2018-05-10T10:52:17.526Z,72.03
2018-05-10T10:53:17.474Z,72.23
2018-05-10T10:54:17.424Z,72.32
2018-05-10T10:55:17.375Z,71.17
2018-05-10T10:56:17.321Z,70.98
2018-05-10T10:57:17.281Z,71.75
2018-05-10T10:58:17.222Z,70.98
2018-05-10T10:59:17.169Z,71.65
2018-05-10T11:00:17.116Z,72.86
2018-05-10T11:01:17.067Z,73.25
2018-05-10T11:02:17.015Z,74.02
2018-05-10T11:03:16.961Z,75.27
2018-05-10T11:04:16.915Z,74.21
2018-05-10T11:05:16.864Z,75.75
2018-05-10T11:06:16.811Z,74.69
2018-05-10T11:07:16.757Z,75.37
2018-05-10T11:08:16.706Z,75.46
2018-05-10T11:09:16.706Z,74.50
2018-05-10T11:10:16.604Z,74.79
2018-05-10T11:11:16.552Z,75.17
2018-05-10T11:12:16.503Z,74.98
2018-05-10T11:13:16.453Z,74.40
2018-05-10T11:14:16.399Z,75.27
2018-05-10T11:15:16.352Z,74.88
2018-05-10T11:16:16.297Z,75.27
2018-05-10T11:17:16.245Z,76.81
2018-05-10T11:18:16.197Z,76.14
2018-05-10T11:19:16.142Z,75.07
2018-05-10T11:20:16.091Z,75.46
2018-05-10T11:21:16.042Z,75.37
2018-05-10T11:22:15.989Z,74.98
2018-05-10T11:23:15.937Z,76.57
2018-05-10T11:24:15.894Z,75.81
2018-05-10T11:25:15.834Z,76.67
2018-05-10T11:26:15.782Z,77.83
2018-05-10T11:27:15.758Z,77.06
2018-05-10T11:28:15.681Z,77.34
2018-05-10T11:29:15.631Z,77.83
2018-05-10T11:30:15.578Z,78.21
2018-05-10T11:31:15.536Z,77.34
2018-05-10T11:32:15.477Z,77.92
2018-05-10T11:33:15.508Z,77.06
2018-05-10T11:34:15.372Z,76.44
2018-05-10T11:35:15.319Z,76.92
2018-05-10T11:36:15.273Z,77.78
2018-05-10T11:37:15.215Z,78.75
2018-05-10T11:38:15.162Z,78.94
2018-05-10T11:39:15.111Z,78.17
2018-05-10T11:40:15.060Z,78.40
2018-05-10T11:41:15.008Z,77.53
2018-05-10T11:42:14.960Z,77.92
2018-05-10T11:43:14.904Z,78.11
2018-05-10T11:44:14.850Z,77.92
2018-05-10T11:45:14.800Z,78.21
2018-05-10T11:46:14.747Z,77.48
2018-05-10T11:47:14.695Z,75.56
2018-05-10T11:48:14.644Z,75.37
2018-05-10T11:49:14.592Z,73.73
2018-05-10T11:50:14.539Z,73.19
2018-05-10T11:51:14.486Z,73.67
2018-05-10T11:52:14.437Z,75.59
2018-05-10T11:53:14.384Z,74.73
2018-05-10T11:54:14.331Z,73.32
2018-05-10T11:55:14.280Z,72.55
2018-05-10T11:56:14.229Z,72.36
2018-05-10T11:57:14.226Z,72.17
2018-05-10T11:58:14.128Z,72.45
2018-05-10T11:59:14.074Z,74.09
2018-05-10T12:00:14.030Z,69.85
2018-05-10T12:01:13.972Z,69.09
2018-05-10T12:02:13.921Z,66.49
2018-05-10T12:03:13.869Z,66.20
2018-05-10T12:04:13.823Z,66.10
2018-05-10T12:05:13.770Z,65.97
2018-05-10T12:06:13.717Z,68.03
2018-05-10T12:07:13.666Z,65.43
2018-05-10T12:08:13.618Z,64.47
2018-05-10T12:09:13.563Z,65.37
2018-05-10T12:10:13.512Z,63.73
2018-05-10T12:11:13.461Z,64.05
2018-05-10T12:12:13.411Z,62.80
2018-05-10T12:13:13.361Z,61.61
2018-05-10T12:14:13.310Z,60.77
2018-05-10T12:15:13.259Z,61.65
2018-05-10T12:16:13.209Z,60.58
2018-05-10T12:17:13.160Z,61.25
2018-05-10T12:18:13.109Z,60.77
2018-05-10T12:19:13.132Z,60.58
2018-05-10T12:20:13.006Z,60.58
2018-05-10T12:21:12.957Z,61.45
2018-05-10T12:22:12.905Z,62.41
2018-05-10T12:23:12.856Z,63.21
2018-05-10T12:24:12.811Z,60.90
2018-05-10T12:25:12.754Z,59.75
2018-05-10T12:26:12.703Z,60.03
2018-05-10T12:27:12.655Z,58.81
2018-05-10T12:28:12.606Z,60.03
2018-05-10T12:29:12.555Z,58.11
2018-05-10T12:30:12.504Z,58.88
2018-05-10T12:31:12.454Z,58.78
2018-05-10T12:32:12.407Z,60.45
2018-05-10T12:33:12.356Z,58.11
2018-05-10T12:34:12.305Z,57.92
2018-05-10T12:35:12.257Z,60.90
2018-05-10T12:36:12.207Z,59.45
2018-05-10T12:37:12.157Z,58.42
2018-05-10T12:38:12.105Z,59.58
2018-05-10T12:39:12.057Z,57.82
2018-05-10T12:40:12.007Z,59.17
2018-05-10T12:41:11.958Z,59.55
2018-05-10T12:42:11.906Z,58.69
2018-05-10T12:43:11.858Z,57.62
2018-05-10T12:44:11.808Z,58.97
2018-05-10T12:45:11.759Z,56.73
2018-05-10T12:46:11.707Z,57.34
2018-05-10T12:47:11.659Z,57.34
2018-05-10T12:48:11.608Z,57.72
2018-05-10T12:49:11.561Z,59.65
2018-05-10T12:50:11.512Z,58.33
2018-05-10T12:51:11.462Z,59.65
2018-05-10T12:52:11.410Z,58.01